sensor_id;sensor_type;location;lat;lon;timestamp;P1;durP1;ratioP1;P2;durP2;ratioP2
12681;SDS011;6405;59.208;18.216;2023-03-12T00:01:11;4.20;;;2.30;;
12681;SDS011;6405;59.208;18.216;2023-03-12T00:03:38;3.90;;;2.47;;
12681;SDS011;6405;59.208;18.216;2023-03-12T00:06:04;5.23;;;2.60;;
12681;SDS011;6405;59.208;18.216;2023-03-12T00:08:31;4.87;;;2.10;;
12681;SDS011;6405;59.208;18.216;2023-03-12T00:10:57;5.60;;;2.23;;
12681;SDS011;6405;59.208;18.216;2023-03-12T00:13:22;6.27;;;2.27;;
12681;SDS011;6405;59.208;18.216;2023-03-12T00:15:48;4.57;;;2.53;;
12681;SDS011;6405;59.208;18.216;2023-03-12T00:18:13;6.87;;;3.33;;
12681;SDS011;6405;59.208;18.216;2023-03-12T00:20:39;7.53;;;2.10;;
12681;SDS011;6405;59.208;18.216;2023-03-12T00:23:04;5.77;;;2.40;;
12681;SDS011;6405;59.208;18.216;2023-03-12T00:25:30;4.13;;;2.53;;
12681;SDS011;6405;59.208;18.216;2023-03-12T00:27:56;3.60;;;2.20;;
12681;SDS011;6405;59.208;18.216;2023-03-12T00:30:21;3.40;;;2.17;;
12681;SDS011;6405;59.208;18.216;2023-03-12T00:32:47;4.00;;;2.20;;
12681;SDS011;6405;59.208;18.216;2023-03-12T00:35:12;5.80;;;2.77;;
12681;SDS011;6405;59.208;18.216;2023-03-12T00:37:38;6.53;;;2.83;;
12681;SDS011;6405;59.208;18.216;2023-03-12T00:40:04;5.73;;;2.97;;
12681;SDS011;6405;59.208;18.216;2023-03-12T00:42:32;6.90;;;2.50;;
12681;SDS011;6405;59.208;18.216;2023-03-12T00:44:58;5.43;;;2.40;;
12681;SDS011;6405;59.208;18.216;2023-03-12T00:47:23;4.77;;;2.70;;
12681;SDS011;6405;59.208;18.216;2023-03-12T00:49:49;5.43;;;2.43;;
12681;SDS011;6405;59.208;18.216;2023-03-12T00:52:15;3.87;;;2.20;;
12681;SDS011;6405;59.208;18.216;2023-03-12T00:54:40;4.17;;;2.40;;
12681;SDS011;6405;59.208;18.216;2023-03-12T00:57:06;10.33;;;2.47;;
12681;SDS011;6405;59.208;18.216;2023-03-12T00:59:32;3.43;;;2.20;;
12681;SDS011;6405;59.208;18.216;2023-03-12T01:01:57;3.17;;;2.10;;
12681;SDS011;6405;59.208;18.216;2023-03-12T01:04:23;5.30;;;2.43;;
12681;SDS011;6405;59.208;18.216;2023-03-12T01:06:48;7.17;;;2.67;;
12681;SDS011;6405;59.208;18.216;2023-03-12T01:09:14;6.33;;;2.53;;
12681;SDS011;6405;59.208;18.216;2023-03-12T01:11:40;3.50;;;2.10;;
12681;SDS011;6405;59.208;18.216;2023-03-12T01:14:06;5.53;;;2.30;;
12681;SDS011;6405;59.208;18.216;2023-03-12T01:16:33;2.40;;;2.20;;
12681;SDS011;6405;59.208;18.216;2023-03-12T01:18:59;4.27;;;2.23;;
12681;SDS011;6405;59.208;18.216;2023-03-12T01:21:26;2.23;;;1.80;;
12681;SDS011;6405;59.208;18.216;2023-03-12T01:23:52;3.87;;;2.40;;
12681;SDS011;6405;59.208;18.216;2023-03-12T01:26:18;7.10;;;2.50;;
12681;SDS011;6405;59.208;18.216;2023-03-12T01:28:44;3.60;;;2.17;;
12681;SDS011;6405;59.208;18.216;2023-03-12T01:31:14;5.40;;;2.10;;
12681;SDS011;6405;59.208;18.216;2023-03-12T01:33:42;9.50;;;2.77;;
12681;SDS011;6405;59.208;18.216;2023-03-12T01:36:15;3.70;;;2.13;;
12681;SDS011;6405;59.208;18.216;2023-03-12T01:38:46;5.57;;;2.37;;
12681;SDS011;6405;59.208;18.216;2023-03-12T01:41:12;4.00;;;1.83;;
12681;SDS011;6405;59.208;18.216;2023-03-12T01:43:38;4.10;;;2.07;;
12681;SDS011;6405;59.208;18.216;2023-03-12T01:46:06;2.97;;;1.80;;
12681;SDS011;6405;59.208;18.216;2023-03-12T01:51:19;3.43;;;1.77;;
12681;SDS011;6405;59.208;18.216;2023-03-12T01:53:47;3.03;;;2.13;;
12681;SDS011;6405;59.208;18.216;2023-03-12T01:56:15;6.23;;;2.43;;
12681;SDS011;6405;59.208;18.216;2023-03-12T01:58:44;5.17;;;2.27;;
12681;SDS011;6405;59.208;18.216;2023-03-12T02:01:14;2.90;;;2.23;;
12681;SDS011;6405;59.208;18.216;2023-03-12T02:03:42;4.70;;;2.27;;
12681;SDS011;6405;59.208;18.216;2023-03-12T02:06:11;4.00;;;2.10;;
12681;SDS011;6405;59.208;18.216;2023-03-12T02:08:40;5.47;;;1.90;;
12681;SDS011;6405;59.208;18.216;2023-03-12T02:11:08;4.30;;;2.30;;
12681;SDS011;6405;59.208;18.216;2023-03-12T02:13:34;2.93;;;1.47;;
12681;SDS011;6405;59.208;18.216;2023-03-12T02:16:00;7.87;;;2.13;;
12681;SDS011;6405;59.208;18.216;2023-03-12T02:18:26;4.03;;;2.20;;
12681;SDS011;6405;59.208;18.216;2023-03-12T02:26:43;4.17;;;2.40;;
12681;SDS011;6405;59.208;18.216;2023-03-12T02:29:09;5.63;;;2.30;;
12681;SDS011;6405;59.208;18.216;2023-03-12T02:31:37;6.10;;;2.10;;
12681;SDS011;6405;59.208;18.216;2023-03-12T02:34:08;4.50;;;2.10;;
12681;SDS011;6405;59.208;18.216;2023-03-12T02:36:34;5.63;;;2.03;;
12681;SDS011;6405;59.208;18.216;2023-03-12T02:38:59;4.70;;;2.03;;
12681;SDS011;6405;59.208;18.216;2023-03-12T02:41:28;5.33;;;1.97;;
12681;SDS011;6405;59.208;18.216;2023-03-12T02:43:57;3.20;;;1.83;;
12681;SDS011;6405;59.208;18.216;2023-03-12T02:46:29;2.83;;;1.50;;
12681;SDS011;6405;59.208;18.216;2023-03-12T02:48:58;2.73;;;1.47;;
12681;SDS011;6405;59.208;18.216;2023-03-12T02:51:23;3.93;;;1.90;;
12681;SDS011;6405;59.208;18.216;2023-03-12T02:53:49;3.83;;;1.77;;
12681;SDS011;6405;59.208;18.216;2023-03-12T02:56:19;2.33;;;1.40;;
12681;SDS011;6405;59.208;18.216;2023-03-12T02:58:46;3.07;;;1.90;;
12681;SDS011;6405;59.208;18.216;2023-03-12T03:01:11;5.07;;;1.73;;
12681;SDS011;6405;59.208;18.216;2023-03-12T03:03:37;1.93;;;1.40;;
12681;SDS011;6405;59.208;18.216;2023-03-12T03:06:03;4.33;;;2.30;;
12681;SDS011;6405;59.208;18.216;2023-03-12T03:08:28;4.17;;;1.80;;
12681;SDS011;6405;59.208;18.216;2023-03-12T03:10:54;5.90;;;1.93;;
12681;SDS011;6405;59.208;18.216;2023-03-12T03:13:20;4.73;;;2.20;;
12681;SDS011;6405;59.208;18.216;2023-03-12T03:15:45;2.90;;;1.63;;
12681;SDS011;6405;59.208;18.216;2023-03-12T03:18:11;4.40;;;1.93;;
12681;SDS011;6405;59.208;18.216;2023-03-12T03:20:37;3.07;;;2.07;;
12681;SDS011;6405;59.208;18.216;2023-03-12T03:23:02;2.70;;;1.70;;
12681;SDS011;6405;59.208;18.216;2023-03-12T03:25:28;3.13;;;1.80;;
12681;SDS011;6405;59.208;18.216;2023-03-12T03:27:54;2.37;;;1.50;;
12681;SDS011;6405;59.208;18.216;2023-03-12T03:30:20;4.30;;;1.63;;
12681;SDS011;6405;59.208;18.216;2023-03-12T03:32:47;2.97;;;1.50;;
12681;SDS011;6405;59.208;18.216;2023-03-12T03:35:13;3.20;;;1.57;;
12681;SDS011;6405;59.208;18.216;2023-03-12T03:37:39;4.03;;;1.60;;
12681;SDS011;6405;59.208;18.216;2023-03-12T03:40:05;5.07;;;2.23;;
12681;SDS011;6405;59.208;18.216;2023-03-12T03:42:35;3.30;;;1.83;;
12681;SDS011;6405;59.208;18.216;2023-03-12T03:45:01;4.23;;;1.80;;
12681;SDS011;6405;59.208;18.216;2023-03-12T03:47:27;0.80;;;0.77;;
12681;SDS011;6405;59.208;18.216;2023-03-12T03:49:52;2.37;;;1.40;;
12681;SDS011;6405;59.208;18.216;2023-03-12T03:52:18;4.77;;;1.70;;
12681;SDS011;6405;59.208;18.216;2023-03-12T03:54:44;3.13;;;1.93;;
12681;SDS011;6405;59.208;18.216;2023-03-12T03:57:09;7.30;;;1.93;;
12681;SDS011;6405;59.208;18.216;2023-03-12T03:59:35;7.20;;;2.13;;
12681;SDS011;6405;59.208;18.216;2023-03-12T04:02:00;4.50;;;2.23;;
12681;SDS011;6405;59.208;18.216;2023-03-12T04:04:26;3.13;;;1.83;;
12681;SDS011;6405;59.208;18.216;2023-03-12T04:06:52;3.40;;;1.77;;
12681;SDS011;6405;59.208;18.216;2023-03-12T04:09:18;7.67;;;2.10;;
12681;SDS011;6405;59.208;18.216;2023-03-12T04:11:43;5.17;;;1.60;;
12681;SDS011;6405;59.208;18.216;2023-03-12T04:14:09;4.10;;;1.57;;
12681;SDS011;6405;59.208;18.216;2023-03-12T04:16:35;4.37;;;1.87;;
12681;SDS011;6405;59.208;18.216;2023-03-12T04:19:00;3.40;;;1.90;;
12681;SDS011;6405;59.208;18.216;2023-03-12T04:21:26;2.90;;;1.97;;
12681;SDS011;6405;59.208;18.216;2023-03-12T04:23:51;3.47;;;1.97;;
12681;SDS011;6405;59.208;18.216;2023-03-12T04:26:17;2.63;;;1.50;;
12681;SDS011;6405;59.208;18.216;2023-03-12T04:28:43;3.07;;;2.00;;
12681;SDS011;6405;59.208;18.216;2023-03-12T04:31:09;3.90;;;1.60;;
12681;SDS011;6405;59.208;18.216;2023-03-12T04:33:36;2.13;;;1.80;;
12681;SDS011;6405;59.208;18.216;2023-03-12T04:36:03;2.10;;;1.60;;
12681;SDS011;6405;59.208;18.216;2023-03-12T04:38:29;3.43;;;2.00;;
12681;SDS011;6405;59.208;18.216;2023-03-12T04:41:05;5.03;;;2.33;;
12681;SDS011;6405;59.208;18.216;2023-03-12T04:43:33;5.67;;;1.37;;
12681;SDS011;6405;59.208;18.216;2023-03-12T04:46:00;1.80;;;1.30;;
12681;SDS011;6405;59.208;18.216;2023-03-12T04:48:27;3.27;;;2.00;;
12681;SDS011;6405;59.208;18.216;2023-03-12T04:50:52;2.53;;;1.27;;
12681;SDS011;6405;59.208;18.216;2023-03-12T04:53:19;1.43;;;1.33;;
12681;SDS011;6405;59.208;18.216;2023-03-12T04:55:45;3.17;;;1.90;;
12681;SDS011;6405;59.208;18.216;2023-03-12T04:58:11;6.77;;;1.97;;
12681;SDS011;6405;59.208;18.216;2023-03-12T05:00:37;2.77;;;1.47;;
12681;SDS011;6405;59.208;18.216;2023-03-12T05:03:03;3.17;;;1.70;;
12681;SDS011;6405;59.208;18.216;2023-03-12T05:05:29;2.13;;;1.47;;
12681;SDS011;6405;59.208;18.216;2023-03-12T05:07:55;3.10;;;1.50;;
12681;SDS011;6405;59.208;18.216;2023-03-12T05:10:20;3.00;;;1.90;;
12681;SDS011;6405;59.208;18.216;2023-03-12T05:12:46;3.30;;;1.60;;
12681;SDS011;6405;59.208;18.216;2023-03-12T05:15:11;2.33;;;1.43;;
12681;SDS011;6405;59.208;18.216;2023-03-12T05:17:37;2.57;;;1.67;;
12681;SDS011;6405;59.208;18.216;2023-03-12T05:20:03;2.83;;;1.63;;
12681;SDS011;6405;59.208;18.216;2023-03-12T05:22:30;3.20;;;1.53;;
12681;SDS011;6405;59.208;18.216;2023-03-12T05:24:55;3.07;;;1.53;;
12681;SDS011;6405;59.208;18.216;2023-03-12T05:27:21;1.70;;;1.00;;
12681;SDS011;6405;59.208;18.216;2023-03-12T05:29:50;4.23;;;1.63;;
12681;SDS011;6405;59.208;18.216;2023-03-12T05:32:16;2.53;;;1.53;;
12681;SDS011;6405;59.208;18.216;2023-03-12T05:34:41;2.77;;;1.93;;
12681;SDS011;6405;59.208;18.216;2023-03-12T05:37:07;2.37;;;1.30;;
12681;SDS011;6405;59.208;18.216;2023-03-12T05:39:33;4.00;;;1.87;;
12681;SDS011;6405;59.208;18.216;2023-03-12T05:41:59;1.90;;;1.33;;
12681;SDS011;6405;59.208;18.216;2023-03-12T05:44:24;3.97;;;1.47;;
12681;SDS011;6405;59.208;18.216;2023-03-12T05:46:51;2.97;;;1.70;;
12681;SDS011;6405;59.208;18.216;2023-03-12T05:49:18;4.63;;;2.03;;
12681;SDS011;6405;59.208;18.216;2023-03-12T05:51:45;3.67;;;1.87;;
12681;SDS011;6405;59.208;18.216;2023-03-12T05:54:12;2.33;;;0.97;;
12681;SDS011;6405;59.208;18.216;2023-03-12T05:56:38;3.33;;;1.93;;
12681;SDS011;6405;59.208;18.216;2023-03-12T05:59:04;3.43;;;1.67;;
12681;SDS011;6405;59.208;18.216;2023-03-12T06:01:30;3.10;;;1.63;;
12681;SDS011;6405;59.208;18.216;2023-03-12T06:03:56;3.03;;;2.13;;
12681;SDS011;6405;59.208;18.216;2023-03-12T06:06:22;3.47;;;1.80;;
12681;SDS011;6405;59.208;18.216;2023-03-12T06:08:48;3.87;;;1.93;;
12681;SDS011;6405;59.208;18.216;2023-03-12T06:11:14;3.87;;;1.60;;
12681;SDS011;6405;59.208;18.216;2023-03-12T06:13:41;4.37;;;1.87;;
12681;SDS011;6405;59.208;18.216;2023-03-12T06:18:36;5.03;;;1.93;;
12681;SDS011;6405;59.208;18.216;2023-03-12T06:23:36;3.03;;;1.37;;
12681;SDS011;6405;59.208;18.216;2023-03-12T06:26:02;3.10;;;1.60;;
12681;SDS011;6405;59.208;18.216;2023-03-12T06:28:28;2.87;;;1.90;;
12681;SDS011;6405;59.208;18.216;2023-03-12T06:30:54;3.87;;;2.27;;
12681;SDS011;6405;59.208;18.216;2023-03-12T06:33:20;2.47;;;1.60;;
12681;SDS011;6405;59.208;18.216;2023-03-12T06:35:46;4.13;;;1.70;;
12681;SDS011;6405;59.208;18.216;2023-03-12T06:38:12;3.03;;;1.63;;
12681;SDS011;6405;59.208;18.216;2023-03-12T06:40:38;3.83;;;1.47;;
12681;SDS011;6405;59.208;18.216;2023-03-12T06:43:04;1.87;;;1.47;;
12681;SDS011;6405;59.208;18.216;2023-03-12T06:45:36;4.13;;;1.33;;
12681;SDS011;6405;59.208;18.216;2023-03-12T06:48:02;5.30;;;1.93;;
12681;SDS011;6405;59.208;18.216;2023-03-12T06:50:28;3.40;;;1.60;;
12681;SDS011;6405;59.208;18.216;2023-03-12T06:52:53;3.13;;;1.70;;
12681;SDS011;6405;59.208;18.216;2023-03-12T06:55:19;2.43;;;1.40;;
12681;SDS011;6405;59.208;18.216;2023-03-12T06:57:44;5.77;;;1.87;;
12681;SDS011;6405;59.208;18.216;2023-03-12T07:00:10;2.30;;;1.40;;
12681;SDS011;6405;59.208;18.216;2023-03-12T07:02:36;2.03;;;1.33;;
12681;SDS011;6405;59.208;18.216;2023-03-12T07:05:02;1.47;;;1.10;;
12681;SDS011;6405;59.208;18.216;2023-03-12T07:07:28;4.33;;;1.50;;
12681;SDS011;6405;59.208;18.216;2023-03-12T07:09:53;2.40;;;1.30;;
12681;SDS011;6405;59.208;18.216;2023-03-12T07:12:19;2.03;;;1.20;;
12681;SDS011;6405;59.208;18.216;2023-03-12T07:14:44;1.23;;;0.50;;
12681;SDS011;6405;59.208;18.216;2023-03-12T07:17:10;1.70;;;1.10;;
12681;SDS011;6405;59.208;18.216;2023-03-12T07:19:36;2.40;;;1.30;;
12681;SDS011;6405;59.208;18.216;2023-03-12T07:22:02;2.33;;;1.27;;
12681;SDS011;6405;59.208;18.216;2023-03-12T07:24:27;2.10;;;1.17;;
12681;SDS011;6405;59.208;18.216;2023-03-12T07:26:53;2.07;;;1.10;;
12681;SDS011;6405;59.208;18.216;2023-03-12T07:29:18;1.47;;;1.13;;
12681;SDS011;6405;59.208;18.216;2023-03-12T07:31:44;2.20;;;1.37;;
12681;SDS011;6405;59.208;18.216;2023-03-12T07:34:10;1.90;;;0.97;;
12681;SDS011;6405;59.208;18.216;2023-03-12T07:36:35;2.90;;;0.87;;
12681;SDS011;6405;59.208;18.216;2023-03-12T07:39:01;3.50;;;1.50;;
12681;SDS011;6405;59.208;18.216;2023-03-12T07:41:28;2.63;;;1.27;;
12681;SDS011;6405;59.208;18.216;2023-03-12T07:43:54;2.50;;;1.27;;
12681;SDS011;6405;59.208;18.216;2023-03-12T07:46:19;1.67;;;1.03;;
12681;SDS011;6405;59.208;18.216;2023-03-12T07:48:45;3.10;;;1.13;;
12681;SDS011;6405;59.208;18.216;2023-03-12T07:51:11;1.23;;;1.10;;
12681;SDS011;6405;59.208;18.216;2023-03-12T07:53:37;1.23;;;0.70;;
12681;SDS011;6405;59.208;18.216;2023-03-12T07:56:03;2.77;;;1.17;;
12681;SDS011;6405;59.208;18.216;2023-03-12T07:58:28;1.77;;;1.17;;
12681;SDS011;6405;59.208;18.216;2023-03-12T08:00:54;1.40;;;0.90;;
12681;SDS011;6405;59.208;18.216;2023-03-12T08:03:20;2.80;;;1.30;;
12681;SDS011;6405;59.208;18.216;2023-03-12T08:05:54;1.80;;;1.10;;
12681;SDS011;6405;59.208;18.216;2023-03-12T08:08:23;1.53;;;0.90;;
12681;SDS011;6405;59.208;18.216;2023-03-12T08:10:49;1.30;;;0.97;;
12681;SDS011;6405;59.208;18.216;2023-03-12T08:13:15;1.10;;;1.00;;
12681;SDS011;6405;59.208;18.216;2023-03-12T08:15:40;1.33;;;0.90;;
12681;SDS011;6405;59.208;18.216;2023-03-12T08:18:08;1.57;;;0.90;;
12681;SDS011;6405;59.208;18.216;2023-03-12T08:20:34;2.13;;;1.10;;
12681;SDS011;6405;59.208;18.216;2023-03-12T08:22:59;2.33;;;0.90;;
12681;SDS011;6405;59.208;18.216;2023-03-12T08:25:25;1.83;;;1.13;;
12681;SDS011;6405;59.208;18.216;2023-03-12T08:27:51;1.20;;;1.10;;
12681;SDS011;6405;59.208;18.216;2023-03-12T08:30:17;1.57;;;1.00;;
12681;SDS011;6405;59.208;18.216;2023-03-12T08:32:42;1.60;;;0.90;;
12681;SDS011;6405;59.208;18.216;2023-03-12T08:35:08;1.23;;;0.80;;
12681;SDS011;6405;59.208;18.216;2023-03-12T08:37:34;3.80;;;0.93;;
12681;SDS011;6405;59.208;18.216;2023-03-12T08:40:00;1.53;;;0.70;;
12681;SDS011;6405;59.208;18.216;2023-03-12T08:42:26;1.40;;;0.60;;
12681;SDS011;6405;59.208;18.216;2023-03-12T08:44:52;0.47;;;0.47;;
12681;SDS011;6405;59.208;18.216;2023-03-12T08:47:18;0.70;;;0.30;;
12681;SDS011;6405;59.208;18.216;2023-03-12T08:49:43;1.00;;;0.70;;
12681;SDS011;6405;59.208;18.216;2023-03-12T08:52:09;2.50;;;1.10;;
12681;SDS011;6405;59.208;18.216;2023-03-12T08:54:34;1.20;;;0.60;;
12681;SDS011;6405;59.208;18.216;2023-03-12T08:57:00;1.03;;;0.77;;
12681;SDS011;6405;59.208;18.216;2023-03-12T08:59:26;1.30;;;0.97;;
12681;SDS011;6405;59.208;18.216;2023-03-12T09:01:51;2.90;;;0.90;;
12681;SDS011;6405;59.208;18.216;2023-03-12T09:04:17;1.33;;;0.80;;
12681;SDS011;6405;59.208;18.216;2023-03-12T09:06:43;0.83;;;0.60;;
12681;SDS011;6405;59.208;18.216;2023-03-12T09:09:09;0.93;;;0.47;;
12681;SDS011;6405;59.208;18.216;2023-03-12T09:11:35;1.83;;;0.50;;
12681;SDS011;6405;59.208;18.216;2023-03-12T09:14:03;0.60;;;0.60;;
12681;SDS011;6405;59.208;18.216;2023-03-12T09:16:29;1.47;;;0.80;;
12681;SDS011;6405;59.208;18.216;2023-03-12T09:18:55;0.90;;;0.80;;
12681;SDS011;6405;59.208;18.216;2023-03-12T09:21:21;0.87;;;0.53;;
12681;SDS011;6405;59.208;18.216;2023-03-12T09:23:46;2.33;;;0.70;;
12681;SDS011;6405;59.208;18.216;2023-03-12T09:26:12;1.63;;;0.47;;
12681;SDS011;6405;59.208;18.216;2023-03-12T09:28:38;2.77;;;0.67;;
12681;SDS011;6405;59.208;18.216;2023-03-12T09:31:04;2.00;;;0.50;;
12681;SDS011;6405;59.208;18.216;2023-03-12T09:33:31;0.50;;;0.50;;
12681;SDS011;6405;59.208;18.216;2023-03-12T09:35:59;1.03;;;0.40;;
12681;SDS011;6405;59.208;18.216;2023-03-12T09:38:26;1.70;;;0.83;;
12681;SDS011;6405;59.208;18.216;2023-03-12T09:40:52;1.83;;;0.87;;
12681;SDS011;6405;59.208;18.216;2023-03-12T09:44:22;1.03;;;0.50;;
12681;SDS011;6405;59.208;18.216;2023-03-12T09:46:19;0.67;;;0.30;;
12681;SDS011;6405;59.208;18.216;2023-03-12T09:48:57;1.80;;;0.80;;
12681;SDS011;6405;59.208;18.216;2023-03-12T09:51:34;2.10;;;0.50;;
12681;SDS011;6405;59.208;18.216;2023-03-12T09:57:19;3.07;;;0.80;;
12681;SDS011;6405;59.208;18.216;2023-03-12T09:59:48;0.40;;;0.20;;
12681;SDS011;6405;59.208;18.216;2023-03-12T10:02:22;1.07;;;0.53;;
12681;SDS011;6405;59.208;18.216;2023-03-12T10:04:57;0.53;;;0.47;;
12681;SDS011;6405;59.208;18.216;2023-03-12T10:16:15;0.47;;;0.40;;
12681;SDS011;6405;59.208;18.216;2023-03-12T10:19:19;2.37;;;0.27;;
12681;SDS011;6405;59.208;18.216;2023-03-12T10:24:44;0.90;;;0.63;;
12681;SDS011;6405;59.208;18.216;2023-03-12T10:27:23;2.50;;;0.50;;
12681;SDS011;6405;59.208;18.216;2023-03-12T10:29:52;0.63;;;0.40;;
12681;SDS011;6405;59.208;18.216;2023-03-12T10:32:24;0.60;;;0.40;;
12681;SDS011;6405;59.208;18.216;2023-03-12T10:37:44;0.47;;;0.40;;
12681;SDS011;6405;59.208;18.216;2023-03-12T10:40:14;1.60;;;0.77;;
12681;SDS011;6405;59.208;18.216;2023-03-12T10:42:41;0.93;;;0.53;;
12681;SDS011;6405;59.208;18.216;2023-03-12T10:47:58;0.47;;;0.47;;
12681;SDS011;6405;59.208;18.216;2023-03-12T10:50:27;0.50;;;0.50;;
12681;SDS011;6405;59.208;18.216;2023-03-12T10:53:40;3.20;;;0.50;;
12681;SDS011;6405;59.208;18.216;2023-03-12T10:58:32;0.30;;;0.30;;
12681;SDS011;6405;59.208;18.216;2023-03-12T11:01:00;0.50;;;0.40;;
12681;SDS011;6405;59.208;18.216;2023-03-12T11:03:28;0.37;;;0.30;;
12681;SDS011;6405;59.208;18.216;2023-03-12T11:05:55;1.00;;;0.40;;
12681;SDS011;6405;59.208;18.216;2023-03-12T11:08:28;0.33;;;0.30;;
12681;SDS011;6405;59.208;18.216;2023-03-12T11:10:59;0.77;;;0.40;;
12681;SDS011;6405;59.208;18.216;2023-03-12T11:13:30;1.93;;;0.40;;
12681;SDS011;6405;59.208;18.216;2023-03-12T11:16:22;1.23;;;0.60;;
12681;SDS011;6405;59.208;18.216;2023-03-12T11:21:56;0.60;;;0.40;;
12681;SDS011;6405;59.208;18.216;2023-03-12T11:24:32;0.67;;;0.40;;
12681;SDS011;6405;59.208;18.216;2023-03-12T11:27:16;1.33;;;0.50;;
12681;SDS011;6405;59.208;18.216;2023-03-12T11:29:50;1.17;;;0.33;;
12681;SDS011;6405;59.208;18.216;2023-03-12T11:32:19;2.20;;;0.40;;
12681;SDS011;6405;59.208;18.216;2023-03-12T11:35:00;0.87;;;0.30;;
12681;SDS011;6405;59.208;18.216;2023-03-12T11:37:39;0.93;;;0.50;;
12681;SDS011;6405;59.208;18.216;2023-03-12T11:43:17;0.87;;;0.20;;
12681;SDS011;6405;59.208;18.216;2023-03-12T11:48:24;0.43;;;0.40;;
12681;SDS011;6405;59.208;18.216;2023-03-12T11:51:27;0.30;;;0.30;;
12681;SDS011;6405;59.208;18.216;2023-03-12T11:54:24;0.77;;;0.47;;
12681;SDS011;6405;59.208;18.216;2023-03-12T12:28:02;0.33;;;0.20;;
12681;SDS011;6405;59.208;18.216;2023-03-12T12:30:57;0.60;;;0.20;;
12681;SDS011;6405;59.208;18.216;2023-03-12T12:33:50;1.00;;;0.27;;
12681;SDS011;6405;59.208;18.216;2023-03-12T12:36:12;0.40;;;0.30;;
12681;SDS011;6405;59.208;18.216;2023-03-12T12:38:39;1.93;;;0.20;;
12681;SDS011;6405;59.208;18.216;2023-03-12T12:41:20;2.93;;;0.33;;
12681;SDS011;6405;59.208;18.216;2023-03-12T12:43:50;0.93;;;0.30;;
12681;SDS011;6405;59.208;18.216;2023-03-12T12:46:20;0.80;;;0.20;;
12681;SDS011;6405;59.208;18.216;2023-03-12T12:48:53;2.03;;;0.53;;
12681;SDS011;6405;59.208;18.216;2023-03-12T12:51:25;0.37;;;0.10;;
12681;SDS011;6405;59.208;18.216;2023-03-12T12:59:28;0.67;;;0.20;;
12681;SDS011;6405;59.208;18.216;2023-03-12T13:01:56;0.33;;;0.10;;
12681;SDS011;6405;59.208;18.216;2023-03-12T13:04:24;1.13;;;0.30;;
12681;SDS011;6405;59.208;18.216;2023-03-12T13:09:21;1.73;;;0.40;;
12681;SDS011;6405;59.208;18.216;2023-03-12T13:11:58;0.47;;;0.20;;
12681;SDS011;6405;59.208;18.216;2023-03-12T13:14:44;0.83;;;0.30;;
12681;SDS011;6405;59.208;18.216;2023-03-12T13:20:00;1.13;;;0.20;;
12681;SDS011;6405;59.208;18.216;2023-03-12T13:22:44;0.83;;;0.30;;
12681;SDS011;6405;59.208;18.216;2023-03-12T13:25:58;0.23;;;0.20;;
12681;SDS011;6405;59.208;18.216;2023-03-12T13:30:54;1.37;;;0.30;;
12681;SDS011;6405;59.208;18.216;2023-03-12T13:36:37;0.97;;;0.50;;
12681;SDS011;6405;59.208;18.216;2023-03-12T13:41:38;0.40;;;0.30;;
12681;SDS011;6405;59.208;18.216;2023-03-12T13:49:55;1.10;;;0.43;;
12681;SDS011;6405;59.208;18.216;2023-03-12T13:55:02;0.57;;;0.30;;
12681;SDS011;6405;59.208;18.216;2023-03-12T14:00:22;1.90;;;0.27;;
12681;SDS011;6405;59.208;18.216;2023-03-12T14:02:56;1.07;;;0.50;;
12681;SDS011;6405;59.208;18.216;2023-03-12T14:05:25;1.93;;;0.30;;
12681;SDS011;6405;59.208;18.216;2023-03-12T14:08:08;3.13;;;0.30;;
12681;SDS011;6405;59.208;18.216;2023-03-12T14:16:55;1.20;;;0.40;;
12681;SDS011;6405;59.208;18.216;2023-03-12T14:19:25;1.77;;;0.40;;
12681;SDS011;6405;59.208;18.216;2023-03-12T14:21:52;0.20;;;0.20;;
12681;SDS011;6405;59.208;18.216;2023-03-12T14:24:27;0.93;;;0.20;;
12681;SDS011;6405;59.208;18.216;2023-03-12T14:26:56;1.70;;;0.40;;
12681;SDS011;6405;59.208;18.216;2023-03-12T14:29:34;0.67;;;0.40;;
12681;SDS011;6405;59.208;18.216;2023-03-12T14:32:12;0.73;;;0.40;;
12681;SDS011;6405;59.208;18.216;2023-03-12T14:34:41;1.80;;;0.47;;
12681;SDS011;6405;59.208;18.216;2023-03-12T14:37:15;0.90;;;0.40;;
12681;SDS011;6405;59.208;18.216;2023-03-12T14:39:45;1.60;;;0.30;;
12681;SDS011;6405;59.208;18.216;2023-03-12T14:42:34;1.53;;;0.20;;
12681;SDS011;6405;59.208;18.216;2023-03-12T14:47:42;0.20;;;0.20;;
12681;SDS011;6405;59.208;18.216;2023-03-12T14:50:16;0.50;;;0.30;;
12681;SDS011;6405;59.208;18.216;2023-03-12T14:52:43;1.07;;;0.20;;
12681;SDS011;6405;59.208;18.216;2023-03-12T14:55:22;0.40;;;0.30;;
12681;SDS011;6405;59.208;18.216;2023-03-12T14:58:06;0.23;;;0.23;;
12681;SDS011;6405;59.208;18.216;2023-03-12T15:00:41;0.73;;;0.53;;
12681;SDS011;6405;59.208;18.216;2023-03-12T15:03:11;0.40;;;0.40;;
12681;SDS011;6405;59.208;18.216;2023-03-12T15:05:44;0.93;;;0.30;;
12681;SDS011;6405;59.208;18.216;2023-03-12T15:08:11;0.40;;;0.40;;
12681;SDS011;6405;59.208;18.216;2023-03-12T15:10:37;3.83;;;0.53;;
12681;SDS011;6405;59.208;18.216;2023-03-12T15:13:04;0.87;;;0.40;;
12681;SDS011;6405;59.208;18.216;2023-03-12T15:15:43;0.43;;;0.23;;
12681;SDS011;6405;59.208;18.216;2023-03-12T15:18:18;2.40;;;0.40;;
12681;SDS011;6405;59.208;18.216;2023-03-12T15:20:49;0.57;;;0.30;;
12681;SDS011;6405;59.208;18.216;2023-03-12T15:23:18;0.83;;;0.20;;
12681;SDS011;6405;59.208;18.216;2023-03-12T15:25:45;1.40;;;0.40;;
12681;SDS011;6405;59.208;18.216;2023-03-12T15:30:40;0.20;;;0.20;;
12681;SDS011;6405;59.208;18.216;2023-03-12T15:35:57;0.73;;;0.30;;
12681;SDS011;6405;59.208;18.216;2023-03-12T15:39:00;2.17;;;0.30;;
12681;SDS011;6405;59.208;18.216;2023-03-12T15:41:43;0.43;;;0.20;;
12681;SDS011;6405;59.208;18.216;2023-03-12T15:46:45;0.30;;;0.20;;
12681;SDS011;6405;59.208;18.216;2023-03-12T15:49:18;0.60;;;0.20;;
12681;SDS011;6405;59.208;18.216;2023-03-12T15:54:42;2.43;;;0.60;;
12681;SDS011;6405;59.208;18.216;2023-03-12T15:57:23;2.53;;;0.60;;
12681;SDS011;6405;59.208;18.216;2023-03-12T16:00:05;0.30;;;0.30;;
12681;SDS011;6405;59.208;18.216;2023-03-12T16:02:45;0.73;;;0.20;;
12681;SDS011;6405;59.208;18.216;2023-03-12T16:05:13;0.33;;;0.23;;
12681;SDS011;6405;59.208;18.216;2023-03-12T16:07:39;1.47;;;0.40;;
12681;SDS011;6405;59.208;18.216;2023-03-12T16:10:04;0.23;;;0.23;;
12681;SDS011;6405;59.208;18.216;2023-03-12T16:12:36;1.27;;;0.43;;
12681;SDS011;6405;59.208;18.216;2023-03-12T16:15:02;0.83;;;0.43;;
12681;SDS011;6405;59.208;18.216;2023-03-12T16:17:28;1.07;;;0.60;;
12681;SDS011;6405;59.208;18.216;2023-03-12T16:19:54;0.97;;;0.50;;
12681;SDS011;6405;59.208;18.216;2023-03-12T16:22:19;0.27;;;0.20;;
12681;SDS011;6405;59.208;18.216;2023-03-12T16:24:46;0.37;;;0.37;;
12681;SDS011;6405;59.208;18.216;2023-03-12T16:27:13;0.40;;;0.23;;
12681;SDS011;6405;59.208;18.216;2023-03-12T16:29:40;1.60;;;0.40;;
12681;SDS011;6405;59.208;18.216;2023-03-12T16:32:12;0.30;;;0.30;;
12681;SDS011;6405;59.208;18.216;2023-03-12T16:34:40;0.30;;;0.30;;
12681;SDS011;6405;59.208;18.216;2023-03-12T16:37:11;1.10;;;0.87;;
12681;SDS011;6405;59.208;18.216;2023-03-12T16:39:37;0.50;;;0.30;;
12681;SDS011;6405;59.208;18.216;2023-03-12T16:42:03;1.33;;;0.40;;
12681;SDS011;6405;59.208;18.216;2023-03-12T16:44:38;0.73;;;0.30;;
12681;SDS011;6405;59.208;18.216;2023-03-12T16:47:08;0.60;;;0.50;;
12681;SDS011;6405;59.208;18.216;2023-03-12T16:49:38;3.03;;;0.40;;
12681;SDS011;6405;59.208;18.216;2023-03-12T16:52:17;0.50;;;0.40;;
12681;SDS011;6405;59.208;18.216;2023-03-12T16:54:45;2.10;;;1.03;;
12681;SDS011;6405;59.208;18.216;2023-03-12T16:57:34;1.77;;;0.80;;
12681;SDS011;6405;59.208;18.216;2023-03-12T17:00:04;3.17;;;1.50;;
12681;SDS011;6405;59.208;18.216;2023-03-12T17:02:33;5.13;;;1.60;;
12681;SDS011;6405;59.208;18.216;2023-03-12T17:04:59;1.63;;;1.00;;